Terminal Aerodrome Forecast
Issued by NWS Grand Junction, CO

Home | Current Version | Previous Version | Text Only | Print | Product List | Glossary On
Versions: 1 2 3 4 5 6 7 8 9 10 11 12 13 14 15 16 17 18 19 20 21 22 23 24 25 26 27 28 29 30 31 32 33 34 35
000
FTUS45 KGJT 040521
TAFGJT
TAF
KGJT 040521Z 0406/0506 33007KT P6SM VCTS SCT120CB
      TEMPO 0406/0407 VRB15G25KT -TSRA SCT070 BKN110CB
     FM041000 14008KT P6SM FEW120
     FM042000 30008G16KT P6SM SKC
     FM050200 05003KT P6SM SKC=

USA.gov is the U.S. government's official web portal to all federal, state and local government web resources and services.